Time,TemperatureF,DewpointF,PressureIn,WindDirection,WindDirectionDegrees,WindSpeedMPH,WindSpeedGustMPH,Humidity,HourlyPrecipIn,Conditions,Clouds,dailyrainin,SoftwareType,DateUTC
2013-05-26 00:02:00,58.0,50.0,-100.00,SSE,160,11.0,15.0,73,0.00,,,0.00,,2013-05-26 05:02:00,
2013-05-26 00:12:00,58.0,50.0,-100.00,SSE,155,11.0,14.0,74,0.00,,,0.00,,2013-05-26 05:12:00,
2013-05-26 00:22:00,58.0,50.0,-100.00,SSE,150,11.0,14.0,75,0.00,,,0.00,,2013-05-26 05:22:00,
2013-05-26 00:32:00,58.0,50.0,-100.00,SE,140,10.0,13.0,75,0.00,,,0.00,,2013-05-26 05:32:00,
2013-05-26 00:42:00,58.0,50.0,-100.00,SE,125,10.0,14.0,76,0.00,,,0.00,,2013-05-26 05:42:00,
2013-05-26 00:52:00,57.0,50.0,-100.00,SE,125,9.0,12.0,77,0.00,,,0.00,,2013-05-26 05:52:00,
2013-05-26 01:01:00,57.0,50.0,-100.00,SE,130,9.0,13.0,77,0.00,,,0.00,,2013-05-26 06:01:00,
2013-05-26 01:12:00,58.0,50.0,-100.00,SE,135,12.0,15.0,75,0.00,,,0.00,,2013-05-26 06:12:00,
2013-05-26 01:22:00,58.0,50.0,-100.00,SE,135,12.0,16.0,73,0.00,,,0.00,,2013-05-26 06:22:00,
2013-05-26 01:32:00,58.0,50.0,-100.00,SE,135,11.0,15.0,72,0.00,,,0.00,,2013-05-26 06:32:00,
2013-05-26 01:42:00,58.0,50.0,-100.00,SE,130,11.0,14.0,72,0.00,,,0.00,,2013-05-26 06:42:00,
2013-05-26 01:52:00,58.0,50.0,-100.00,SE,130,12.0,17.0,72,0.00,,,0.00,,2013-05-26 06:52:00,
2013-05-26 02:01:00,58.0,50.0,-100.00,SE,140,13.0,16.0,72,0.00,,,0.00,,2013-05-26 07:01:00,
2013-05-26 02:11:00,58.0,50.0,-100.00,SE,145,12.0,17.0,72,0.00,,,0.00,,2013-05-26 07:11:00,
2013-05-26 02:21:00,58.0,50.0,-100.00,SE,130,12.0,16.0,72,0.00,,,0.00,,2013-05-26 07:21:00,
2013-05-26 02:31:00,58.0,50.0,-100.00,SE,135,12.0,17.0,71,0.00,,,0.00,,2013-05-26 07:31:00,
2013-05-26 02:42:00,58.0,48.0,-100.00,SE,130,12.0,17.0,70,0.00,,,0.00,,2013-05-26 07:42:00,
2013-05-26 02:52:00,58.0,48.0,-100.00,SE,130,9.0,17.0,70,0.00,,,0.00,,2013-05-26 07:52:00,
2013-05-26 03:01:00,58.0,48.0,-100.00,ESE,115,10.0,13.0,71,0.00,,,0.00,,2013-05-26 08:01:00,
2013-05-26 03:12:00,58.0,48.0,-100.00,SE,125,12.0,16.0,70,0.00,,,0.00,,2013-05-26 08:12:00,
2013-05-26 03:21:00,58.0,48.0,-100.00,ESE,115,12.0,17.0,71,0.00,,,0.00,,2013-05-26 08:21:00,
2013-05-26 03:32:00,57.0,48.0,-100.00,ESE,115,10.0,16.0,71,0.00,,,0.00,,2013-05-26 08:32:00,
2013-05-26 03:42:00,57.0,48.0,-100.00,ESE,110,9.0,13.0,73,0.00,,,0.00,,2013-05-26 08:42:00,
2013-05-26 03:53:00,57.0,48.0,-100.00,East,100,5.0,11.0,73,0.00,,,0.00,,2013-05-26 08:53:00,
2013-05-26 04:01:00,57.0,48.0,-100.00,ESE,110,9.0,12.0,73,0.00,,,0.00,,2013-05-26 09:01:00,
2013-05-26 04:11:00,57.0,48.0,-100.00,ESE,110,11.0,14.0,73,0.00,,,0.00,,2013-05-26 09:11:00,
2013-05-26 04:21:00,57.0,48.0,-100.00,ESE,115,9.0,12.0,74,0.00,,,0.00,,2013-05-26 09:21:00,
2013-05-26 04:33:00,57.0,48.0,-100.00,ESE,115,10.0,14.0,75,0.00,,,0.00,,2013-05-26 09:33:00,
2013-05-26 04:42:00,58.0,48.0,-100.00,ESE,120,19.0,23.0,72,0.00,,,0.00,,2013-05-26 09:42:00,
2013-05-26 04:52:00,58.0,48.0,-100.00,ESE,120,13.0,22.0,71,0.00,,,0.00,,2013-05-26 09:52:00,
2013-05-26 05:02:00,57.0,48.0,-100.00,ESE,110,11.0,16.0,73,0.00,,,0.00,,2013-05-26 10:02:00,
2013-05-26 05:12:00,57.0,48.0,-100.00,ESE,115,12.0,15.0,74,0.00,,,0.00,,2013-05-26 10:12:00,
2013-05-26 05:23:00,57.0,48.0,-100.00,ESE,115,14.0,17.0,73,0.00,,,0.00,,2013-05-26 10:23:00,
2013-05-26 05:32:00,57.0,48.0,-100.00,ESE,110,16.0,21.0,72,0.00,,,0.00,,2013-05-26 10:32:00,
2013-05-26 05:42:00,55.0,48.0,-100.00,ESE,105,7.0,14.0,75,0.00,,,0.00,,2013-05-26 10:42:00,
2013-05-26 05:52:00,55.0,46.0,-100.00,East,100,5.0,11.0,75,0.00,,,0.00,,2013-05-26 10:52:00,
2013-05-26 06:03:00,54.0,46.0,-100.00,ESE,105,7.0,10.0,75,0.00,,,0.00,,2013-05-26 11:03:00,
2013-05-26 06:11:00,54.0,46.0,-100.00,ESE,105,7.0,10.0,75,0.00,,,0.00,,2013-05-26 11:11:00,
2013-05-26 06:22:00,54.0,46.0,-100.00,East,100,6.0,12.0,76,0.00,,,0.00,,2013-05-26 11:22:00,
2013-05-26 06:32:00,54.0,46.0,-100.00,ESE,105,9.0,14.0,76,0.00,,,0.00,,2013-05-26 11:32:00,
2013-05-26 06:42:00,54.0,48.0,-100.00,ESE,105,10.0,14.0,76,0.00,,,0.00,,2013-05-26 11:42:00,
2013-05-26 06:52:00,55.0,48.0,-100.00,ESE,105,12.0,16.0,76,0.00,,,0.00,,2013-05-26 11:52:00,
2013-05-26 07:02:00,55.0,48.0,-100.00,ESE,110,15.0,19.0,76,0.00,,,0.00,,2013-05-26 12:02:00,
2013-05-26 07:12:00,55.0,48.0,-100.00,ESE,110,12.0,19.0,76,0.00,,,0.00,,2013-05-26 12:12:00,
2013-05-26 07:21:00,55.0,46.0,-100.00,ESE,110,10.0,17.0,75,0.00,,,0.00,,2013-05-26 12:21:00,
2013-05-26 07:32:00,55.0,46.0,-100.00,ESE,110,14.0,17.0,75,0.00,,,0.00,,2013-05-26 12:32:00,
2013-05-26 07:42:00,55.0,48.0,-100.00,ESE,105,10.0,15.0,75,0.00,,,0.00,,2013-05-26 12:42:00,
2013-05-26 07:52:00,55.0,48.0,-100.00,East,100,9.0,14.0,75,0.00,,,0.00,,2013-05-26 12:52:00,
2013-05-26 08:02:00,55.0,48.0,-100.00,ESE,105,10.0,16.0,74,0.00,,,0.00,,2013-05-26 13:02:00,
2013-05-26 08:11:00,55.0,48.0,-100.00,ESE,110,12.0,17.0,73,0.00,,,0.00,,2013-05-26 13:11:00,
2013-05-26 08:21:00,56.0,48.0,-100.00,East,100,10.0,16.0,73,0.00,,,0.00,,2013-05-26 13:21:00,
2013-05-26 08:32:00,56.0,48.0,-100.00,ESE,110,12.0,16.0,73,0.00,,,0.00,,2013-05-26 13:32:00,
2013-05-26 08:42:00,56.0,48.0,-100.00,ESE,115,11.0,17.0,72,0.00,,,0.00,,2013-05-26 13:42:00,
2013-05-26 08:52:00,56.0,48.0,-100.00,ESE,110,12.0,17.0,72,0.00,,,0.00,,2013-05-26 13:52:00,
2013-05-26 09:02:00,57.0,48.0,-100.00,ESE,110,15.0,21.0,71,0.00,,,0.00,,2013-05-26 14:02:00,
2013-05-26 09:11:00,57.0,48.0,-100.00,ESE,120,17.0,21.0,70,0.00,,,0.00,,2013-05-26 14:11:00,
2013-05-26 09:21:00,57.0,48.0,-100.00,ESE,115,18.0,22.0,69,0.00,,,0.00,,2013-05-26 14:21:00,
2013-05-26 09:32:00,58.0,48.0,-100.00,ESE,115,16.0,24.0,69,0.00,,,0.00,,2013-05-26 14:32:00,
2013-05-26 09:42:00,58.0,48.0,-100.00,ESE,110,18.0,22.0,68,0.00,,,0.00,,2013-05-26 14:42:00,
2013-05-26 09:52:00,58.0,48.0,-100.00,ESE,120,17.0,26.0,68,0.00,,,0.00,,2013-05-26 14:52:00,
2013-05-26 10:01:00,58.0,48.0,-100.00,SE,125,16.0,23.0,67,0.00,,,0.00,,2013-05-26 15:01:00,
2013-05-26 10:12:00,58.0,48.0,-100.00,ESE,120,14.0,20.0,67,0.00,,,0.00,,2013-05-26 15:12:00,
2013-05-26 10:22:00,58.0,48.0,-100.00,ESE,120,14.0,20.0,67,0.00,,,0.00,,2013-05-26 15:22:00,
2013-05-26 10:33:00,59.0,48.0,-100.00,ESE,115,17.0,20.0,67,0.00,,,0.00,,2013-05-26 15:33:00,
2013-05-26 10:43:00,59.0,48.0,-100.00,SE,125,17.0,22.0,66,0.00,,,0.00,,2013-05-26 15:43:00,
2013-05-26 10:53:00,60.0,48.0,-100.00,ESE,120,17.0,21.0,66,0.00,,,0.00,,2013-05-26 15:53:00,
2013-05-26 11:03:00,60.0,48.0,-100.00,ESE,110,19.0,24.0,65,0.00,,,0.00,,2013-05-26 16:03:00,
2013-05-26 11:12:00,60.0,48.0,-100.00,ESE,115,17.0,26.0,65,0.00,,,0.00,,2013-05-26 16:12:00,
2013-05-26 11:23:00,60.0,48.0,-100.00,SE,130,17.0,26.0,65,0.00,,,0.00,,2013-05-26 16:23:00,
2013-05-26 11:33:00,60.0,48.0,-100.00,ESE,110,19.0,24.0,64,0.00,,,0.00,,2013-05-26 16:33:00,
2013-05-26 11:42:00,60.0,48.0,-100.00,ESE,115,17.0,24.0,64,0.00,,,0.00,,2013-05-26 16:42:00,
2013-05-26 11:52:00,60.0,48.0,-100.00,ESE,115,21.0,24.0,63,0.00,,,0.00,,2013-05-26 16:52:00,
2013-05-26 12:02:00,60.0,48.0,-100.00,ESE,115,18.0,24.0,63,0.00,,,0.00,,2013-05-26 17:02:00,
2013-05-26 12:11:00,61.0,48.0,-100.00,ESE,110,19.0,24.0,62,0.00,,,0.00,,2013-05-26 17:11:00,
2013-05-26 12:22:00,61.0,48.0,-100.00,East,100,17.0,23.0,61,0.00,,,0.00,,2013-05-26 17:22:00,
2013-05-26 12:32:00,62.0,48.0,-100.00,ESE,120,16.0,23.0,61,0.00,,,0.00,,2013-05-26 17:32:00,
2013-05-26 12:42:00,61.0,48.0,-100.00,SE,130,17.0,25.0,60,0.00,,,0.00,,2013-05-26 17:42:00,
2013-05-26 12:52:00,62.0,48.0,-100.00,ESE,120,14.0,21.0,60,0.00,,,0.00,,2013-05-26 17:52:00,
2013-05-26 13:01:00,62.0,48.0,-100.00,ESE,120,17.0,23.0,59,0.00,,,0.00,,2013-05-26 18:01:00,
2013-05-26 13:12:00,62.0,48.0,-100.00,ESE,110,17.0,22.0,59,0.00,,,0.00,,2013-05-26 18:12:00,
2013-05-26 13:21:00,62.0,48.0,-100.00,ESE,115,16.0,22.0,59,0.00,,,0.00,,2013-05-26 18:21:00,
2013-05-26 13:32:00,62.0,46.0,-100.00,SE,135,16.0,21.0,58,0.00,,,0.00,,2013-05-26 18:32:00,
2013-05-26 13:42:00,62.0,46.0,-100.00,SSE,150,17.0,21.0,57,0.00,,,0.00,,2013-05-26 18:42:00,
2013-05-26 13:52:00,62.0,46.0,-100.00,SE,145,19.0,23.0,57,0.00,,,0.00,,2013-05-26 18:52:00,
2013-05-26 14:01:00,62.0,46.0,-100.00,SE,145,17.0,24.0,57,0.00,,,0.00,,2013-05-26 19:01:00,
2013-05-26 14:11:00,62.0,46.0,-100.00,SE,135,16.0,24.0,57,0.00,,,0.00,,2013-05-26 19:11:00,
2013-05-26 14:22:00,62.0,46.0,-100.00,SE,145,19.0,23.0,56,0.00,,,0.00,,2013-05-26 19:22:00,
2013-05-26 14:32:00,62.0,46.0,-100.00,SSE,150,19.0,23.0,56,0.00,,,0.00,,2013-05-26 19:32:00,
2013-05-26 14:42:00,62.0,46.0,-100.00,SE,145,14.0,20.0,56,0.00,,,0.00,,2013-05-26 19:42:00,
2013-05-26 14:52:00,62.0,46.0,-100.00,SE,140,18.0,22.0,55,0.00,,,0.00,,2013-05-26 19:52:00,
2013-05-26 15:02:00,63.0,46.0,-100.00,SE,140,16.0,21.0,54,0.00,,,0.00,,2013-05-26 20:02:00,
2013-05-26 15:11:00,63.0,46.0,-100.00,SE,145,19.0,24.0,53,0.00,,,0.00,,2013-05-26 20:11:00,
2013-05-26 15:21:00,63.0,46.0,-100.00,SE,145,19.0,24.0,53,0.00,,,0.00,,2013-05-26 20:21:00,
2013-05-26 15:32:00,63.0,45.0,-100.00,SE,140,17.0,23.0,51,0.00,,,0.00,,2013-05-26 20:32:00,
2013-05-26 15:42:00,63.0,46.0,-100.00,SSE,160,13.0,21.0,52,0.00,,,0.00,,2013-05-26 20:42:00,
2013-05-26 15:52:00,63.0,45.0,-100.00,SSE,155,16.0,23.0,52,0.00,,,0.00,,2013-05-26 20:52:00,
2013-05-26 16:02:00,63.0,45.0,-100.00,SSE,150,17.0,22.0,51,0.00,,,0.00,,2013-05-26 21:02:00,
2013-05-26 16:11:00,63.0,45.0,-100.00,SSE,160,18.0,22.0,51,0.00,,,0.00,,2013-05-26 21:11:00,
2013-05-26 16:22:00,63.0,45.0,-100.00,SSE,160,16.0,22.0,51,0.00,,,0.00,,2013-05-26 21:22:00,
2013-05-26 16:33:00,63.0,45.0,-100.00,SSE,150,16.0,22.0,51,0.00,,,0.00,,2013-05-26 21:33:00,
2013-05-26 16:43:00,63.0,45.0,-100.00,SSE,160,16.0,21.0,51,0.00,,,0.00,,2013-05-26 21:43:00,
2013-05-26 16:53:00,63.0,45.0,-100.00,SSE,160,13.0,19.0,52,0.00,,,0.00,,2013-05-26 21:53:00,
2013-05-26 17:02:00,63.0,46.0,-100.00,South,175,16.0,20.0,52,0.00,,,0.00,,2013-05-26 22:02:00,
2013-05-26 17:12:00,63.0,46.0,-100.00,SSE,160,11.0,20.0,52,0.00,,,0.00,,2013-05-26 22:12:00,
2013-05-26 17:23:00,63.0,46.0,-100.00,South,170,12.0,15.0,54,0.00,,,0.00,,2013-05-26 22:23:00,
2013-05-26 17:33:00,62.0,46.0,-100.00,South,170,12.0,16.0,54,0.00,,,0.00,,2013-05-26 22:33:00,
2013-05-26 17:42:00,62.0,46.0,-100.00,SSE,160,11.0,17.0,55,0.00,,,0.00,,2013-05-26 22:42:00,
2013-05-26 17:53:00,62.0,46.0,-100.00,SE,145,13.0,17.0,54,0.00,,,0.00,,2013-05-26 22:53:00,
2013-05-26 18:02:00,62.0,46.0,-100.00,SSE,160,12.0,15.0,54,0.00,,,0.00,,2013-05-26 23:02:00,
2013-05-26 18:12:00,63.0,46.0,-100.00,SSE,150,14.0,17.0,54,0.00,,,0.00,,2013-05-26 23:12:00,
2013-05-26 18:22:00,63.0,45.0,-100.00,SE,145,17.0,21.0,52,0.00,,,0.00,,2013-05-26 23:22:00,
2013-05-26 18:32:00,63.0,45.0,-100.00,SE,140,16.0,22.0,52,0.00,,,0.00,,2013-05-26 23:32:00,
2013-05-26 18:43:00,63.0,45.0,-100.00,SE,140,16.0,22.0,52,0.00,,,0.00,,2013-05-26 23:43:00,
2013-05-26 18:51:00,63.0,45.0,-100.00,SE,140,16.0,22.0,52,0.00,,,0.00,,2013-05-26 23:51:00,
2013-05-26 19:02:00,61.0,46.0,-100.00,SE,140,16.0,23.0,57,0.00,,,0.00,,2013-05-27 00:02:00,
2013-05-26 19:11:00,61.0,46.0,-100.00,SE,140,16.0,23.0,57,0.00,,,0.00,,2013-05-27 00:11:00,
2013-05-26 19:22:00,61.0,45.0,-100.00,ESE,120,13.0,17.0,55,0.00,,,0.00,,2013-05-27 00:22:00,
2013-05-26 19:32:00,61.0,46.0,-100.00,SE,125,8.0,14.0,58,0.00,,,0.00,,2013-05-27 00:32:00,
2013-05-26 19:42:00,61.0,46.0,-100.00,ESE,120,8.0,11.0,59,0.00,,,0.00,,2013-05-27 00:42:00,
2013-05-26 19:52:00,60.0,46.0,-100.00,ESE,110,9.0,12.0,61,0.00,,,0.00,,2013-05-27 00:52:00,
2013-05-26 20:01:00,61.0,46.0,-100.00,ESE,115,7.0,10.0,59,0.00,,,0.00,,2013-05-27 01:01:00,
2013-05-26 20:11:00,61.0,46.0,-100.00,ESE,120,7.0,10.0,58,0.00,,,0.00,,2013-05-27 01:11:00,
2013-05-26 20:22:00,61.0,46.0,-100.00,ESE,105,7.0,11.0,58,0.00,,,0.00,,2013-05-27 01:22:00,
2013-05-26 20:31:00,61.0,46.0,-100.00,ESE,120,6.0,9.0,59,0.00,,,0.00,,2013-05-27 01:31:00,
2013-05-26 20:42:00,61.0,46.0,-100.00,ESE,115,6.0,7.0,59,0.00,,,0.00,,2013-05-27 01:42:00,
2013-05-26 20:52:00,61.0,46.0,-100.00,SE,130,7.0,11.0,58,0.00,,,0.00,,2013-05-27 01:52:00,
2013-05-26 21:01:00,61.0,46.0,-100.00,ESE,120,9.0,12.0,58,0.00,,,0.00,,2013-05-27 02:01:00,
2013-05-26 21:11:00,61.0,46.0,-100.00,SE,130,8.0,12.0,58,0.00,,,0.00,,2013-05-27 02:11:00,
2013-05-26 21:21:00,61.0,45.0,-100.00,SE,135,10.0,12.0,55,0.00,,,0.00,,2013-05-27 02:21:00,
2013-05-26 21:32:00,60.0,45.0,-100.00,SE,130,9.0,12.0,55,0.00,,,0.00,,2013-05-27 02:32:00,
2013-05-26 21:42:00,60.0,45.0,-100.00,SE,130,9.0,12.0,55,0.00,,,0.00,,2013-05-27 02:42:00,
2013-05-26 21:52:00,60.0,45.0,-100.00,SE,145,12.0,16.0,54,0.00,,,0.00,,2013-05-27 02:52:00,
2013-05-26 22:02:00,60.0,43.0,-100.00,SE,140,13.0,22.0,54,0.00,,,0.00,,2013-05-27 03:02:00,
2013-05-26 22:11:00,60.0,43.0,-100.00,SE,145,19.0,24.0,54,0.00,,,0.00,,2013-05-27 03:11:00,
2013-05-26 22:21:00,60.0,43.0,-100.00,SE,140,17.0,22.0,54,0.00,,,0.00,,2013-05-27 03:21:00,
2013-05-26 22:33:00,59.0,43.0,-100.00,SE,140,14.0,22.0,54,0.00,,,0.00,,2013-05-27 03:33:00,
2013-05-26 22:43:00,60.0,43.0,-100.00,SE,140,14.0,21.0,54,0.00,,,0.00,,2013-05-27 03:43:00,
2013-05-26 22:53:00,59.0,43.0,-100.00,SE,135,14.0,18.0,54,0.00,,,0.00,,2013-05-27 03:53:00,
2013-05-26 23:02:00,59.0,43.0,-100.00,SE,135,13.0,19.0,54,0.00,,,0.00,,2013-05-27 04:02:00,
2013-05-26 23:12:00,59.0,43.0,-100.00,SE,130,14.0,18.0,54,0.00,,,0.00,,2013-05-27 04:12:00,
2013-05-26 23:23:00,59.0,43.0,-100.00,SE,135,14.0,18.0,54,0.00,,,0.00,,2013-05-27 04:23:00,
2013-05-26 23:33:00,60.0,43.0,-100.00,SE,130,16.0,24.0,54,0.00,,,0.00,,2013-05-27 04:33:00,
2013-05-26 23:43:00,60.0,43.0,-100.00,SE,130,16.0,21.0,53,0.00,,,0.00,,2013-05-27 04:43:00,
2013-05-26 23:52:00,59.0,43.0,-100.00,SE,125,13.0,20.0,53,0.00,,,0.00,,2013-05-27 04:52:00,